Terminal Aerodrome Forecast
Issued by NWS Binghamton, NY

Home | Current Version | Previous Version | Text Only | Print | Product List | Glossary On
Versions: 1 2 3 4 5 6 7 8 9 10 11 12 13 14 15 16 17
000
FTUS41 KBGM 280500
TAFAVP
TAF
KAVP 280533Z 2806/2906 VRB05KT P6SM -SHRA SCT025 OVC035
      TEMPO 2808/2812 3SM SHRA BR OVC025
     FM281200 24010KT P6SM -SHRA OVC025
     FM282100 32015KT P6SM -SHRA OVC035
     FM290000 30005KT P6SM BKN040=

USA.gov is the U.S. government's official web portal to all federal, state and local government web resources and services.